Time;durP1;ratioP1;P1;durP2;ratioP2;P2;SDS_P1;SDS_P2;PMS_P1;PMS_P2;Temp;Humidity;BMP_temperature;BMP_pressure;BME280_temperature;BME280_humidity;BME280_pressure;Samples;Min_cycle;Max_cycle;Signal;HPM_P1;HPM_P2
2023/10/03 00:01:45;;;;;;;31.95;18.88;;;;;;;;;;5260249;28;20785;-76
2023/10/03 00:04:16;;;;;;;33.28;20.63;;;;;;;;;;5261490;28;20020;-76
2023/10/03 00:06:48;;;;;;;30.92;19.20;;;;;;;;;;5259837;28;20087;-76
2023/10/03 00:09:19;;;;;;;31.10;19.33;;;;;;;;;;5261333;28;20478;-75
2023/10/03 00:11:51;;;;;;;34.50;20.47;;;;;;;;;;5260786;28;20492;-76
2023/10/03 00:14:22;;;;;;;30.42;19.48;;;;;;;;;;5260478;28;20686;-76
2023/10/03 00:16:54;;;;;;;29.27;18.17;;;;;;;;;;5260659;28;20025;-76
2023/10/03 00:19:25;;;;;;;31.30;19.73;;;;;;;;;;5261093;28;20295;-76
2023/10/03 00:21:57;;;;;;;32.28;19.75;;;;;;;;;;5260034;28;20021;-76
2023/10/03 00:24:28;;;;;;;31.27;19.47;;;;;;;;;;5260990;28;20395;-76
2023/10/03 00:26:59;;;;;;;34.40;20.90;;;;;;;;;;5260899;28;20358;-76
2023/10/03 00:29:33;;;;;;;33.53;19.58;;;;;;;;;;5260076;28;20104;-75
2023/10/03 00:32:04;;;;;;;34.45;18.67;;;;;;;;;;5260557;28;20576;-75
2023/10/03 00:34:36;;;;;;;30.65;19.25;;;;;;;;;;5260662;28;20045;-75
2023/10/03 00:37:07;;;;;;;32.83;20.58;;;;;;;;;;5260126;28;20357;-76
2023/10/03 00:39:39;;;;;;;29.37;18.10;;;;;;;;;;5260572;28;20028;-76
2023/10/03 00:42:11;;;;;;;30.60;18.55;;;;;;;;;;5260132;28;20394;-76
2023/10/03 00:44:42;;;;;;;32.40;20.25;;;;;;;;;;5260556;28;20028;-76
2023/10/03 00:47:14;;;;;;;31.38;19.70;;;;;;;;;;5260640;28;20476;-76
2023/10/03 00:49:46;;;;;;;31.65;18.85;;;;;;;;;;5259550;28;20040;-76
2023/10/03 00:52:18;;;;;;;33.28;20.27;;;;;;;;;;5260786;28;20017;-76
2023/10/03 00:54:49;;;;;;;31.92;18.35;;;;;;;;;;5260361;28;20510;-76
2023/10/03 00:57:22;;;;;;;31.10;20.73;;;;;;;;;;5260179;28;20024;-77
2023/10/03 00:59:56;;;;;;;32.40;19.77;;;;;;;;;;5260231;28;20013;-76
2023/10/03 01:02:27;;;;;;;29.08;18.75;;;;;;;;;;5260544;28;20031;-77
2023/10/03 01:05:02;;;;;;;31.50;18.00;;;;;;;;;;5259494;28;20101;-77
2023/10/03 01:07:33;;;;;;;31.20;19.67;;;;;;;;;;5260398;28;20303;-76
2023/10/03 01:10:07;;;;;;;31.83;20.05;;;;;;;;;;5259662;28;20505;-77
2023/10/03 01:12:38;;;;;;;32.58;18.92;;;;;;;;;;5260554;28;20029;-77
2023/10/03 01:15:16;;;;;;;31.70;19.15;;;;;;;;;;5260271;28;20028;-77
2023/10/03 01:17:49;;;;;;;30.80;18.08;;;;;;;;;;5259137;28;20025;-77
2023/10/03 01:20:24;;;;;;;32.05;18.80;;;;;;;;;;5260355;28;20037;-77
2023/10/03 01:22:56;;;;;;;31.10;18.45;;;;;;;;;;5260293;28;20017;-77
2023/10/03 01:25:27;;;;;;;29.88;18.73;;;;;;;;;;5260660;28;20025;-77
2023/10/03 01:27:58;;;;;;;31.05;18.20;;;;;;;;;;5264236;28;20013;-76
2023/10/03 01:30:29;;;;;;;28.60;18.17;;;;;;;;;;5263968;28;20045;-76
2023/10/03 01:33:01;;;;;;;30.43;18.27;;;;;;;;;;5263787;28;20742;-77
2023/10/03 01:35:32;;;;;;;29.77;18.48;;;;;;;;;;5263935;28;20670;-77
2023/10/03 01:38:07;;;;;;;29.73;18.77;;;;;;;;;;5263292;28;20392;-77
2023/10/03 01:40:38;;;;;;;28.33;17.02;;;;;;;;;;5263819;28;20037;-77
2023/10/03 01:43:09;;;;;;;28.23;17.43;;;;;;;;;;5264190;28;20013;-77
2023/10/03 01:45:40;;;;;;;26.88;16.00;;;;;;;;;;5263267;28;20264;-76
2023/10/03 01:48:12;;;;;;;27.40;16.63;;;;;;;;;;5263922;28;20023;-76
2023/10/03 01:50:44;;;;;;;29.55;17.58;;;;;;;;;;5263610;28;20271;-76
2023/10/03 01:53:15;;;;;;;30.23;17.58;;;;;;;;;;5262984;28;20051;-76
2023/10/03 01:55:47;;;;;;;27.02;15.65;;;;;;;;;;5263672;28;20021;-76
2023/10/03 01:58:23;;;;;;;25.50;14.75;;;;;;;;;;5264085;28;20388;-76
2023/10/03 02:00:54;;;;;;;26.95;15.30;;;;;;;;;;5262662;28;20087;-76
2023/10/03 02:03:28;;;;;;;27.30;16.63;;;;;;;;;;5263521;28;20402;-76
2023/10/03 02:06:00;;;;;;;28.42;16.60;;;;;;;;;;5263470;28;20088;-76
2023/10/03 02:08:33;;;;;;;28.13;16.85;;;;;;;;;;5262672;28;20040;-76
2023/10/03 02:11:05;;;;;;;27.38;15.77;;;;;;;;;;5263639;28;20496;-76
2023/10/03 02:13:38;;;;;;;29.17;16.17;;;;;;;;;;5262594;28;20537;-76
2023/10/03 02:16:10;;;;;;;28.95;16.80;;;;;;;;;;5263240;28;20017;-76
2023/10/03 02:18:42;;;;;;;28.42;17.13;;;;;;;;;;5263153;28;20016;-76
2023/10/03 02:21:16;;;;;;;24.63;15.38;;;;;;;;;;5262161;28;20395;-76
2023/10/03 02:23:48;;;;;;;25.02;16.23;;;;;;;;;;5262894;28;20048;-76
2023/10/03 02:26:20;;;;;;;26.30;16.42;;;;;;;;;;5263408;28;20017;-76
2023/10/03 02:28:52;;;;;;;25.48;15.02;;;;;;;;;;5262171;28;20013;-76
2023/10/03 02:31:23;;;;;;;24.23;14.13;;;;;;;;;;5262842;28;20052;-76
2023/10/03 02:33:55;;;;;;;27.07;16.33;;;;;;;;;;5263080;28;20472;-77
2023/10/03 02:36:27;;;;;;;26.90;15.80;;;;;;;;;;5261829;28;20271;-77
2023/10/03 02:39:00;;;;;;;25.97;14.50;;;;;;;;;;5262856;28;20026;-77
2023/10/03 02:41:31;;;;;;;28.00;14.40;;;;;;;;;;5262199;28;20654;-77
2023/10/03 02:44:03;;;;;;;28.40;17.17;;;;;;;;;;5262941;28;20025;-77
2023/10/03 02:46:34;;;;;;;24.00;14.75;;;;;;;;;;5262848;28;20108;-77
2023/10/03 02:49:07;;;;;;;24.43;14.80;;;;;;;;;;5261955;28;20028;-77
2023/10/03 02:51:38;;;;;;;22.63;13.15;;;;;;;;;;5262832;28;20294;-77
2023/10/03 02:54:10;;;;;;;22.33;13.50;;;;;;;;;;5262365;28;20013;-77
2023/10/03 02:56:42;;;;;;;20.73;12.57;;;;;;;;;;5261799;28;20028;-77
2023/10/03 02:59:13;;;;;;;23.70;15.15;;;;;;;;;;5262466;28;20044;-77
2023/10/03 03:01:52;;;;;;;25.20;14.10;;;;;;;;;;5262150;28;20040;-78
2023/10/03 03:04:23;;;;;;;22.55;12.85;;;;;;;;;;5261779;28;20271;-76
2023/10/03 03:07:01;;;;;;;21.30;12.45;;;;;;;;;;5262286;28;20025;-76
2023/10/03 03:09:36;;;;;;;21.83;11.53;;;;;;;;;;5261513;28;20017;-76
2023/10/03 03:12:08;;;;;;;18.40;10.80;;;;;;;;;;5262211;28;20021;-76
2023/10/03 03:14:39;;;;;;;18.23;10.13;;;;;;;;;;5262327;28;20036;-76
2023/10/03 03:17:14;;;;;;;19.17;10.07;;;;;;;;;;5261383;28;20096;-75
2023/10/03 03:19:45;;;;;;;17.73;9.98;;;;;;;;;;5261722;28;20017;-76
2023/10/03 03:22:21;;;;;;;16.95;9.65;;;;;;;;;;5262265;28;20472;-76
2023/10/03 03:24:53;;;;;;;19.70;11.00;;;;;;;;;;5260951;28;20020;-76
2023/10/03 03:27:26;;;;;;;20.25;10.40;;;;;;;;;;5261848;28;20032;-76
2023/10/03 03:30:33;;;;;;;23.88;12.20;;;;;;;;;;5261961;28;20070;-76
2023/10/03 03:33:06;;;;;;;20.15;11.20;;;;;;;;;;5261866;28;20403;-76
2023/10/03 03:35:38;;;;;;;21.15;12.95;;;;;;;;;;5261848;28;20024;-76
2023/10/03 03:38:15;;;;;;;17.98;11.20;;;;;;;;;;5261143;28;20024;-76
2023/10/03 03:40:47;;;;;;;17.42;10.40;;;;;;;;;;5261476;28;20391;-76
2023/10/03 03:43:18;;;;;;;16.10;10.00;;;;;;;;;;5261864;28;20017;-76
2023/10/03 03:45:51;;;;;;;19.17;11.27;;;;;;;;;;5260591;28;20460;-77
2023/10/03 03:48:22;;;;;;;16.02;9.45;;;;;;;;;;5261296;28;20134;-76
2023/10/03 03:50:54;;;;;;;14.60;9.15;;;;;;;;;;5261563;28;20099;-76
2023/10/03 03:53:26;;;;;;;18.13;9.68;;;;;;;;;;5260829;28;20025;-76
2023/10/03 03:55:58;;;;;;;15.80;9.60;;;;;;;;;;5261344;28;20029;-76
2023/10/03 03:58:31;;;;;;;15.20;9.13;;;;;;;;;;5261503;28;20017;-76
2023/10/03 04:01:07;;;;;;;13.70;7.45;;;;;;;;;;5260522;28;20044;-76
2023/10/03 04:03:38;;;;;;;14.88;8.32;;;;;;;;;;5261481;28;20017;-76
2023/10/03 04:06:09;;;;;;;11.38;6.90;;;;;;;;;;5260510;28;20037;-76
2023/10/03 04:08:41;;;;;;;15.45;8.65;;;;;;;;;;5261410;28;20460;-76
2023/10/03 04:11:15;;;;;;;16.00;7.37;;;;;;;;;;5261374;28;20024;-76
2023/10/03 04:13:55;;;;;;;9.90;5.57;;;;;;;;;;5260235;28;20342;-77
2023/10/03 04:16:32;;;;;;;11.15;5.82;;;;;;;;;;5261067;28;20033;-76
2023/10/03 04:19:05;;;;;;;9.52;5.28;;;;;;;;;;5261301;28;20021;-76
2023/10/03 04:21:37;;;;;;;9.82;4.90;;;;;;;;;;5260324;28;20036;-75
2023/10/03 04:24:10;;;;;;;12.70;6.20;;;;;;;;;;5261057;28;20017;-75
2023/10/03 04:26:42;;;;;;;9.57;4.35;;;;;;;;;;5260910;28;20025;-76
2023/10/03 04:29:13;;;;;;;12.57;4.38;;;;;;;;;;5260169;28;20028;-76
2023/10/03 04:31:46;;;;;;;14.82;4.90;;;;;;;;;;5260345;28;20045;-76
2023/10/03 04:34:20;;;;;;;8.70;3.78;;;;;;;;;;5260705;28;20017;-76
2023/10/03 04:36:51;;;;;;;7.35;3.50;;;;;;;;;;5260340;28;20016;-76
2023/10/03 04:39:23;;;;;;;9.23;3.60;;;;;;;;;;5260986;28;20559;-75
2023/10/03 04:41:54;;;;;;;5.00;2.35;;;;;;;;;;5259708;28;20053;-77
2023/10/03 04:44:25;;;;;;;9.73;3.70;;;;;;;;;;5260918;28;20033;-76
2023/10/03 04:46:56;;;;;;;51.33;5.87;;;;;;;;;;5260778;28;20271;-76
2023/10/03 04:49:27;;;;;;;7.50;2.75;;;;;;;;;;5259979;28;20275;-76
2023/10/03 04:51:59;;;;;;;9.88;2.95;;;;;;;;;;5260688;28;20099;-76
2023/10/03 04:54:30;;;;;;;6.93;2.33;;;;;;;;;;5260836;28;20105;-76
2023/10/03 04:57:01;;;;;;;7.30;2.70;;;;;;;;;;5259861;28;20267;-77
2023/10/03 04:59:33;;;;;;;7.70;2.55;;;;;;;;;;5262046;28;20059;-77
2023/10/03 05:02:04;;;;;;;6.72;2.60;;;;;;;;;;5263976;28;20049;-77
2023/10/03 05:04:35;;;;;;;6.97;2.87;;;;;;;;;;5264604;28;20052;-76
2023/10/03 05:07:07;;;;;;;6.35;2.60;;;;;;;;;;5264762;28;20271;-76
2023/10/03 05:09:38;;;;;;;6.47;2.58;;;;;;;;;;5263849;28;20017;-76
2023/10/03 05:12:10;;;;;;;6.65;2.45;;;;;;;;;;5264492;28;20025;-76
2023/10/03 05:14:41;;;;;;;4.97;1.90;;;;;;;;;;5264279;28;20013;-76
2023/10/03 05:17:15;;;;;;;6.43;2.47;;;;;;;;;;5263459;28;20027;-76
2023/10/03 05:19:46;;;;;;;6.05;2.33;;;;;;;;;;5263712;28;20013;-76
2023/10/03 05:22:18;;;;;;;10.52;3.03;;;;;;;;;;5264185;28;20082;-76
2023/10/03 05:24:49;;;;;;;4.10;1.77;;;;;;;;;;5262835;28;20013;-76
2023/10/03 05:27:20;;;;;;;8.52;3.22;;;;;;;;;;5264389;28;20105;-76
2023/10/03 05:29:51;;;;;;;6.07;2.40;;;;;;;;;;5263552;28;20017;-76
2023/10/03 05:32:24;;;;;;;7.47;2.90;;;;;;;;;;5263108;28;20049;-77
2023/10/03 05:34:55;;;;;;;8.07;3.00;;;;;;;;;;5264138;28;20643;-77
2023/10/03 05:37:27;;;;;;;8.65;3.08;;;;;;;;;;5263110;28;20017;-77
2023/10/03 05:39:58;;;;;;;7.93;3.25;;;;;;;;;;5263463;28;20384;-77
2023/10/03 05:42:29;;;;;;;9.40;3.00;;;;;;;;;;5263911;28;20025;-77
2023/10/03 05:45:00;;;;;;;5.25;2.75;;;;;;;;;;5263205;28;20383;-76
2023/10/03 05:47:32;;;;;;;5.47;2.17;;;;;;;;;;5263803;28;20033;-76
2023/10/03 05:50:03;;;;;;;6.65;2.72;;;;;;;;;;5263744;28;20781;-77
2023/10/03 05:52:34;;;;;;;8.88;2.90;;;;;;;;;;5262896;28;20017;-77
2023/10/03 05:55:05;;;;;;;7.73;2.87;;;;;;;;;;5263763;28;20021;-77
2023/10/03 05:57:39;;;;;;;6.97;2.00;;;;;;;;;;5263661;28;20276;-76
2023/10/03 06:00:13;;;;;;;4.35;2.50;;;;;;;;;;5262798;28;20044;-75
2023/10/03 06:02:47;;;;;;;6.10;1.98;;;;;;;;;;5263546;28;20051;-76
2023/10/03 06:05:18;;;;;;;5.85;2.28;;;;;;;;;;5263404;28;20028;-75
2023/10/03 06:07:49;;;;;;;7.22;2.50;;;;;;;;;;5263044;28;20380;-76
2023/10/03 06:10:21;;;;;;;5.75;2.53;;;;;;;;;;5263569;28;20021;-76
2023/10/03 06:12:53;;;;;;;6.68;2.33;;;;;;;;;;5261681;28;20369;-76
2023/10/03 06:15:24;;;;;;;6.53;1.77;;;;;;;;;;5263270;28;20464;-76
2023/10/03 06:17:55;;;;;;;7.70;2.80;;;;;;;;;;5263099;28;20162;-77
2023/10/03 06:20:26;;;;;;;5.53;2.03;;;;;;;;;;5262208;28;20302;-75
2023/10/03 06:22:58;;;;;;;6.03;2.75;;;;;;;;;;5263029;28;20630;-76
2023/10/03 06:25:29;;;;;;;8.77;3.10;;;;;;;;;;5263147;28;20488;-76
2023/10/03 06:28:01;;;;;;;7.97;3.50;;;;;;;;;;5262279;28;20270;-76
2023/10/03 06:30:36;;;;;;;4.55;2.13;;;;;;;;;;5262585;28;20329;-76
2023/10/03 06:33:07;;;;;;;7.07;2.30;;;;;;;;;;5262747;28;20009;-77
2023/10/03 06:35:38;;;;;;;4.70;2.50;;;;;;;;;;5262182;28;20086;-75
2023/10/03 06:38:10;;;;;;;6.97;3.05;;;;;;;;;;5262788;28;20021;-75
2023/10/03 06:40:42;;;;;;;5.43;2.58;;;;;;;;;;5262210;28;20036;-76
2023/10/03 06:43:13;;;;;;;9.35;2.88;;;;;;;;;;5262731;28;20020;-76
2023/10/03 06:45:45;;;;;;;6.13;2.63;;;;;;;;;;5262551;28;20464;-77
2023/10/03 06:48:16;;;;;;;8.90;3.22;;;;;;;;;;5262192;28;20043;-77
2023/10/03 06:50:47;;;;;;;4.53;3.03;;;;;;;;;;5262196;28;20025;-77
2023/10/03 06:53:19;;;;;;;5.87;2.57;;;;;;;;;;5263243;28;20665;-77
2023/10/03 06:55:50;;;;;;;6.18;3.10;;;;;;;;;;5261291;28;20374;-77
2023/10/03 06:58:21;;;;;;;6.90;2.70;;;;;;;;;;5262732;28;20055;-76
2023/10/03 07:00:53;;;;;;;7.23;3.07;;;;;;;;;;5262101;28;20304;-76
2023/10/03 07:03:24;;;;;;;5.53;2.70;;;;;;;;;;5261449;28;20268;-76
2023/10/03 07:05:56;;;;;;;6.07;2.67;;;;;;;;;;5262394;28;20422;-77
2023/10/03 07:08:28;;;;;;;6.82;3.33;;;;;;;;;;5262260;28;20314;-75
2023/10/03 07:11:00;;;;;;;5.65;2.97;;;;;;;;;;5258004;28;20075;-76
2023/10/03 07:13:33;;;;;;;7.15;3.30;;;;;;;;;;5276420;28;20020;-77
2023/10/03 07:16:04;;;;;;;6.03;3.25;;;;;;;;;;5281242;28;20020;-77
2023/10/03 07:18:35;;;;;;;7.00;2.72;;;;;;;;;;5282043;28;20477;-76
2023/10/03 07:21:06;;;;;;;4.37;3.03;;;;;;;;;;5281194;28;20027;-76
2023/10/03 07:23:39;;;;;;;6.70;3.40;;;;;;;;;;5279106;28;20271;-78
2023/10/03 07:26:10;;;;;;;7.05;3.97;;;;;;;;;;5282443;28;20103;-77
2023/10/03 07:28:42;;;;;;;14.60;5.95;;;;;;;;;;5282539;28;20131;-76
2023/10/03 07:31:13;;;;;;;8.77;4.68;;;;;;;;;;5281449;28;20045;-74
2023/10/03 07:33:44;;;;;;;8.50;4.03;;;;;;;;;;5281289;28;20106;-77
2023/10/03 07:36:17;;;;;;;10.45;4.85;;;;;;;;;;5282757;28;20024;-76
2023/10/03 07:38:48;;;;;;;7.28;3.67;;;;;;;;;;5281347;28;20025;-75
2023/10/03 07:41:21;;;;;;;9.90;4.03;;;;;;;;;;5282546;28;20039;-76
2023/10/03 07:43:52;;;;;;;7.53;3.78;;;;;;;;;;5281487;28;20266;-75
2023/10/03 07:46:27;;;;;;;8.27;4.30;;;;;;;;;;5282383;28;20016;-75
2023/10/03 07:49:01;;;;;;;8.15;3.22;;;;;;;;;;5282126;28;20023;-75
2023/10/03 07:51:32;;;;;;;8.82;4.43;;;;;;;;;;5281756;28;20371;-75
2023/10/03 07:54:04;;;;;;;7.03;3.65;;;;;;;;;;5260270;28;20037;-75
2023/10/03 07:56:38;;;;;;;7.82;4.20;;;;;;;;;;5259859;28;20071;-75
2023/10/03 07:59:09;;;;;;;7.72;3.90;;;;;;;;;;5278724;28;20493;-76
2023/10/03 08:01:40;;;;;;;8.30;3.30;;;;;;;;;;5280854;28;20041;-77
2023/10/03 08:04:12;;;;;;;7.70;3.40;;;;;;;;;;5280542;28;20275;-77
2023/10/03 08:06:44;;;;;;;6.93;2.85;;;;;;;;;;5280332;28;20283;-76
2023/10/03 08:09:17;;;;;;;9.15;3.90;;;;;;;;;;5261441;28;20013;-76
2023/10/03 08:11:51;;;;;;;6.82;2.67;;;;;;;;;;5259523;28;20391;-76
2023/10/03 08:14:23;;;;;;;5.32;2.78;;;;;;;;;;5260107;28;20032;-76
2023/10/03 08:16:57;;;;;;;5.63;2.58;;;;;;;;;;5261152;28;20017;-76
2023/10/03 08:19:28;;;;;;;5.38;2.55;;;;;;;;;;5258387;28;20017;-76
2023/10/03 08:21:59;;;;;;;12.63;2.50;;;;;;;;;;5258381;28;20585;-76
2023/10/03 08:24:32;;;;;;;6.00;1.50;;;;;;;;;;5266163;28;20293;-75
2023/10/03 08:27:03;;;;;;;5.68;1.63;;;;;;;;;;5280157;28;20356;-75
2023/10/03 08:29:35;;;;;;;4.43;1.10;;;;;;;;;;5280315;28;20062;-76
2023/10/03 08:32:06;;;;;;;6.38;1.38;;;;;;;;;;5280626;28;20153;-75
2023/10/03 08:34:44;;;;;;;3.92;0.90;;;;;;;;;;5279576;28;20074;-74
2023/10/03 08:37:21;;;;;;;3.20;0.77;;;;;;;;;;5280741;28;20025;-75
2023/10/03 08:39:52;;;;;;;4.00;0.80;;;;;;;;;;5280327;28;20027;-75
2023/10/03 08:42:34;;;;;;;3.23;0.87;;;;;;;;;;5279990;28;20029;-76
2023/10/03 08:45:22;;;;;;;4.05;0.80;;;;;;;;;;5279833;28;20295;-75
2023/10/03 08:47:53;;;;;;;4.55;0.90;;;;;;;;;;5279795;28;20085;-75
2023/10/03 08:50:34;;;;;;;1.75;0.50;;;;;;;;;;5280158;28;20016;-74
2023/10/03 08:56:08;;;;;;;2.78;0.50;;;;;;;;;;5257388;28;20414;-76
2023/10/03 08:58:48;;;;;;;5.32;0.47;;;;;;;;;;5280042;28;20459;-76
2023/10/03 09:01:19;;;;;;;3.65;0.68;;;;;;;;;;5279263;28;20088;-72
2023/10/03 09:03:58;;;;;;;3.30;0.50;;;;;;;;;;5280037;28;20024;-77
2023/10/03 09:06:29;;;;;;;;;;;;;;;;;;5260253;28;20024;-78
2023/10/03 09:09:10;;;;;;;1.15;0.10;;;;;;;;;;5258546;28;19958;-76
2023/10/03 09:11:42;;;;;;;1.00;0.10;;;;;;;;;;5259492;28;20048;-76
2023/10/03 09:14:22;;;;;;;1.38;0.10;;;;;;;;;;5260922;28;20021;-76
2023/10/03 09:16:59;;;;;;;1.98;0.10;;;;;;;;;;5278925;28;20070;-76
2023/10/03 09:19:41;;;;;;;1.52;0.10;;;;;;;;;;5262834;28;20100;-74
2023/10/03 09:22:26;;;;;;;2.80;0.20;;;;;;;;;;5259571;28;20033;-76
2023/10/03 09:24:57;;;;;;;1.73;0.20;;;;;;;;;;5271378;28;20111;-77
2023/10/03 09:27:30;;;;;;;4.90;0.20;;;;;;;;;;5279782;28;20104;-76
2023/10/03 09:30:22;;;;;;;1.35;0.20;;;;;;;;;;5279068;28;20267;-76
2023/10/03 09:32:54;;;;;;;3.72;0.50;;;;;;;;;;5275844;28;20044;-72
2023/10/03 09:35:28;;;;;;;2.13;0.20;;;;;;;;;;5259066;28;20025;-73
2023/10/03 09:38:04;;;;;;;1.92;0.30;;;;;;;;;;5258274;28;20025;-77
2023/10/03 09:40:51;;;;;;;3.65;0.30;;;;;;;;;;5259278;28;20070;-77
2023/10/03 09:43:27;;;;;;;3.17;0.30;;;;;;;;;;5258776;28;20092;-77
2023/10/03 09:46:00;;;;;;;2.65;0.20;;;;;;;;;;5259954;28;20100;-77
2023/10/03 09:48:31;;;;;;;1.90;0.30;;;;;;;;;;5264402;28;20120;-77
2023/10/03 09:51:05;;;;;;;1.80;0.25;;;;;;;;;;5282723;28;20096;-77
2023/10/03 09:53:39;;;;;;;1.98;0.40;;;;;;;;;;5265855;28;20028;-77
2023/10/03 09:56:11;;;;;;;2.38;0.30;;;;;;;;;;5283278;28;20016;-77
2023/10/03 09:58:46;;;;;;;2.63;0.30;;;;;;;;;;5282829;28;20036;-76
2023/10/03 10:01:18;;;;;;;2.30;0.20;;;;;;;;;;5262871;28;20090;-77
2023/10/03 10:03:52;;;;;;;2.25;0.35;;;;;;;;;;5262351;28;20017;-77
2023/10/03 10:06:37;;;;;;;2.65;0.80;;;;;;;;;;5261748;28;20021;-77
2023/10/03 10:09:23;;;;;;;1.95;0.32;;;;;;;;;;5262576;28;20056;-77
2023/10/03 10:12:14;;;;;;;1.50;0.30;;;;;;;;;;5261761;28;20032;-77
2023/10/03 10:15:01;;;;;;;3.00;0.40;;;;;;;;;;5261986;28;20025;-78
2023/10/03 10:17:45;;;;;;;3.85;0.30;;;;;;;;;;5264411;28;20025;-77
2023/10/03 10:20:38;;;;;;;2.10;0.30;;;;;;;;;;5282784;28;20037;-78
2023/10/03 10:25:42;;;;;;;2.92;0.30;;;;;;;;;;5282624;28;20540;-75
2023/10/03 10:28:20;;;;;;;2.75;0.40;;;;;;;;;;5282793;28;20466;-78
2023/10/03 10:31:10;;;;;;;1.70;0.40;;;;;;;;;;5283737;28;20045;-78
2023/10/03 10:33:45;;;;;;;1.80;0.35;;;;;;;;;;5283318;28;20032;-78
2023/10/03 10:36:18;;;;;;;1.75;0.30;;;;;;;;;;5282990;28;20398;-77
2023/10/03 10:38:52;;;;;;;1.58;0.38;;;;;;;;;;5282189;28;20027;-77
2023/10/03 10:41:29;;;;;;;2.88;0.40;;;;;;;;;;5282098;28;20032;-78
2023/10/03 10:44:05;;;;;;;2.70;0.28;;;;;;;;;;5269361;28;20021;-78
2023/10/03 10:46:47;;;;;;;1.40;0.20;;;;;;;;;;5263028;28;20028;-78
2023/10/03 10:49:30;;;;;;;0.50;0.10;;;;;;;;;;5262577;28;20021;-76
2023/10/03 10:52:06;;;;;;;0.50;0.10;;;;;;;;;;5261810;28;20108;-78
2023/10/03 10:54:39;;;;;;;1.75;0.20;;;;;;;;;;5260808;28;20040;-77
2023/10/03 10:57:11;;;;;;;2.63;0.20;;;;;;;;;;5261321;28;20056;-77
2023/10/03 10:59:43;;;;;;;0.77;0.08;;;;;;;;;;5261262;28;20521;-78
2023/10/03 11:02:17;;;;;;;1.27;0.20;;;;;;;;;;5261642;28;20048;-78
2023/10/03 11:04:55;;;;;;;2.97;0.10;;;;;;;;;;5262122;28;20414;-79
2023/10/03 11:07:27;;;;;;;2.97;0.10;;;;;;;;;;5262681;28;20060;-77
2023/10/03 11:10:06;;;;;;;0.98;0.10;;;;;;;;;;5261778;28;20041;-78
2023/10/03 11:12:37;;;;;;;;;;;;;;;;;;5262808;28;20074;-78
2023/10/03 11:15:12;;;;;;;1.13;0.10;;;;;;;;;;5261561;28;19909;-77
2023/10/03 11:17:48;;;;;;;0.75;0.10;;;;;;;;;;5262207;28;20028;-76
2023/10/03 11:20:19;;;;;;;0.60;0.10;;;;;;;;;;5262259;28;20040;-79
2023/10/03 11:22:51;;;;;;;1.75;0.10;;;;;;;;;;5261132;28;20475;-77
2023/10/03 11:25:22;;;;;;;0.30;0.10;;;;;;;;;;5262226;28;20017;-79
2023/10/03 11:27:56;;;;;;;1.53;0.23;;;;;;;;;;5269787;28;20281;-78
2023/10/03 11:30:28;;;;;;;1.00;0.15;;;;;;;;;;5281273;28;20289;-79
2023/10/03 11:33:00;;;;;;;1.20;0.20;;;;;;;;;;5268936;28;20033;-79
2023/10/03 11:35:31;;;;;;;2.42;0.30;;;;;;;;;;5260856;28;20020;-79
2023/10/03 11:38:05;;;;;;;3.28;0.20;;;;;;;;;;5259591;28;20492;-80
2023/10/03 11:40:39;;;;;;;1.38;0.20;;;;;;;;;;5260717;28;20116;-75
2023/10/03 11:43:10;;;;;;;1.95;0.30;;;;;;;;;;5273436;28;20055;-80
2023/10/03 11:45:46;;;;;;;1.00;0.20;;;;;;;;;;5281487;28;20024;-80
2023/10/03 11:48:22;;;;;;;3.40;0.40;;;;;;;;;;5281522;28;20514;-79
2023/10/03 11:50:53;;;;;;;2.05;0.45;;;;;;;;;;5280326;28;20036;-78
2023/10/03 11:53:25;;;;;;;1.73;0.30;;;;;;;;;;5281363;28;20367;-78
2023/10/03 11:55:56;;;;;;;1.42;0.30;;;;;;;;;;5281256;28;20035;-78
2023/10/03 11:58:28;;;;;;;3.55;0.30;;;;;;;;;;5279818;28;20107;-78
2023/10/03 12:00:59;;;;;;;2.08;0.38;;;;;;;;;;5281134;28;20025;-80
2023/10/03 12:03:30;;;;;;;1.60;0.50;;;;;;;;;;5266170;28;20123;-78
2023/10/03 12:06:01;;;;;;;2.10;0.40;;;;;;;;;;5259640;28;20025;-77
2023/10/03 12:08:34;;;;;;;2.45;0.50;;;;;;;;;;5274848;28;20017;-78
2023/10/03 12:11:05;;;;;;;3.97;0.50;;;;;;;;;;5280362;28;20024;-78
2023/10/03 12:13:37;;;;;;;4.85;0.60;;;;;;;;;;5280609;28;20073;-78
2023/10/03 12:16:08;;;;;;;3.08;0.50;;;;;;;;;;5281276;28;20016;-78
2023/10/03 12:18:39;;;;;;;3.20;0.50;;;;;;;;;;5264550;28;20048;-78
2023/10/03 12:21:11;;;;;;;2.03;0.40;;;;;;;;;;5260248;28;20032;-78
2023/10/03 12:23:45;;;;;;;3.72;0.70;;;;;;;;;;5275868;28;20271;-76
2023/10/03 12:26:16;;;;;;;2.85;0.63;;;;;;;;;;5273398;28;20036;-78
2023/10/03 12:28:47;;;;;;;4.97;0.70;;;;;;;;;;5274383;28;20021;-77
2023/10/03 12:31:25;;;;;;;4.05;0.60;;;;;;;;;;5280494;28;20672;-77
2023/10/03 12:33:57;;;;;;;3.05;0.50;;;;;;;;;;5279741;28;20383;-77
2023/10/03 12:36:29;;;;;;;3.45;0.50;;;;;;;;;;5280384;28;20035;-78
2023/10/03 12:39:10;;;;;;;3.45;0.60;;;;;;;;;;5262881;28;20017;-78
2023/10/03 12:41:41;;;;;;;2.83;0.50;;;;;;;;;;5259116;28;20040;-78
2023/10/03 12:44:13;;;;;;;2.07;0.50;;;;;;;;;;5259636;28;20017;-78
2023/10/03 12:46:44;;;;;;;2.70;0.55;;;;;;;;;;5258907;28;20329;-78
2023/10/03 12:49:16;;;;;;;2.55;0.50;;;;;;;;;;5278577;28;20016;-77
2023/10/03 12:51:47;;;;;;;4.10;0.60;;;;;;;;;;5279940;28;20483;-77
2023/10/03 12:54:18;;;;;;;3.70;0.50;;;;;;;;;;5279407;28;20032;-76
2023/10/03 12:56:49;;;;;;;2.80;0.70;;;;;;;;;;5280212;28;20351;-76
2023/10/03 12:59:21;;;;;;;3.33;0.63;;;;;;;;;;5260895;28;20244;-77
2023/10/03 13:01:52;;;;;;;2.17;0.50;;;;;;;;;;5257421;28;20302;-77
2023/10/03 13:04:23;;;;;;;2.33;0.50;;;;;;;;;;5278754;28;20024;-78
2023/10/03 13:06:54;;;;;;;2.42;0.40;;;;;;;;;;5280474;28;20023;-78
2023/10/03 13:09:27;;;;;;;3.72;0.50;;;;;;;;;;5279270;28;20028;-77
2023/10/03 13:11:58;;;;;;;2.00;0.40;;;;;;;;;;5280308;28;20040;-78
2023/10/03 13:14:30;;;;;;;3.90;0.53;;;;;;;;;;5263035;28;20021;-78
2023/10/03 13:17:01;;;;;;;2.33;0.50;;;;;;;;;;5280326;28;20765;-78
2023/10/03 13:19:34;;;;;;;4.03;0.70;;;;;;;;;;5280173;28;20019;-77
2023/10/03 13:22:06;;;;;;;2.85;0.70;;;;;;;;;;5281614;28;20044;-77
2023/10/03 13:24:37;;;;;;;2.50;0.65;;;;;;;;;;5283689;28;20031;-76
2023/10/03 13:27:08;;;;;;;5.03;0.63;;;;;;;;;;5284300;28;20020;-76
2023/10/03 13:29:39;;;;;;;2.95;0.63;;;;;;;;;;5263365;28;20029;-76
2023/10/03 13:32:11;;;;;;;4.22;0.60;;;;;;;;;;5262907;28;20037;-76
2023/10/03 13:34:43;;;;;;;3.33;0.60;;;;;;;;;;5283701;28;20028;-76
2023/10/03 13:37:15;;;;;;;3.35;0.70;;;;;;;;;;5283330;28;20013;-76
2023/10/03 13:39:48;;;;;;;3.33;0.60;;;;;;;;;;5283568;28;20033;-77
2023/10/03 13:42:19;;;;;;;3.47;0.55;;;;;;;;;;5282420;28;20062;-77
2023/10/03 13:44:53;;;;;;;3.90;0.90;;;;;;;;;;5259962;28;20049;-76
2023/10/03 13:47:27;;;;;;;3.42;0.80;;;;;;;;;;5262857;28;20027;-77
2023/10/03 13:49:59;;;;;;;2.33;0.52;;;;;;;;;;5262326;28;20483;-77
2023/10/03 13:52:30;;;;;;;3.40;0.80;;;;;;;;;;5262672;28;20017;-77
2023/10/03 13:55:06;;;;;;;2.65;0.80;;;;;;;;;;5263012;28;20017;-77
2023/10/03 13:57:40;;;;;;;3.42;0.68;;;;;;;;;;5262059;28;20094;-77
2023/10/03 14:00:14;;;;;;;1.73;0.60;;;;;;;;;;5262764;28;20029;-78
2023/10/03 14:02:47;;;;;;;2.92;0.60;;;;;;;;;;5262365;28;20036;-79
2023/10/03 14:05:19;;;;;;;5.38;0.80;;;;;;;;;;5262386;28;20017;-78
2023/10/03 14:07:50;;;;;;;2.03;0.52;;;;;;;;;;5262688;28;20031;-78
2023/10/03 14:10:22;;;;;;;2.13;0.43;;;;;;;;;;5262803;28;20021;-79
2023/10/03 14:12:54;;;;;;;2.67;0.63;;;;;;;;;;5261722;28;20031;-78
2023/10/03 14:15:25;;;;;;;4.18;0.80;;;;;;;;;;5262806;28;20566;-78
2023/10/03 14:17:56;;;;;;;4.78;0.50;;;;;;;;;;5261724;28;20021;-78
2023/10/03 14:20:29;;;;;;;3.38;0.50;;;;;;;;;;5261927;28;20056;-78
2023/10/03 14:23:00;;;;;;;2.50;0.55;;;;;;;;;;5267339;28;20025;-78
2023/10/03 14:25:32;;;;;;;2.22;0.65;;;;;;;;;;5279812;28;20624;-78
2023/10/03 14:28:04;;;;;;;3.05;0.50;;;;;;;;;;5281520;28;20398;-79
2023/10/03 14:30:36;;;;;;;2.90;0.68;;;;;;;;;;5282983;28;20048;-78
2023/10/03 14:33:10;;;;;;;1.80;0.45;;;;;;;;;;5278079;28;20020;-78
2023/10/03 14:35:45;;;;;;;2.72;0.50;;;;;;;;;;5282775;28;20024;-78
2023/10/03 14:38:18;;;;;;;3.08;0.68;;;;;;;;;;5283172;28;20020;-78
2023/10/03 14:40:50;;;;;;;4.07;0.70;;;;;;;;;;5281389;28;20043;-78
2023/10/03 14:43:21;;;;;;;3.42;0.60;;;;;;;;;;5280820;28;20017;-78
2023/10/03 14:45:53;;;;;;;3.92;0.70;;;;;;;;;;5282493;28;20398;-77
2023/10/03 14:48:26;;;;;;;3.25;0.90;;;;;;;;;;5282992;28;20008;-78
2023/10/03 14:50:58;;;;;;;5.57;0.82;;;;;;;;;;5282327;28;20013;-75
2023/10/03 14:53:29;;;;;;;2.83;0.70;;;;;;;;;;5283047;28;20012;-78
2023/10/03 14:56:03;;;;;;;2.13;0.50;;;;;;;;;;5283633;28;20024;-78
2023/10/03 14:58:38;;;;;;;3.28;0.50;;;;;;;;;;5283504;28;20028;-78
2023/10/03 15:01:10;;;;;;;3.65;0.63;;;;;;;;;;5282655;28;20028;-79
2023/10/03 15:03:42;;;;;;;3.58;0.70;;;;;;;;;;5283314;28;20013;-79
2023/10/03 15:06:13;;;;;;;2.88;0.68;;;;;;;;;;5283426;28;20481;-80
2023/10/03 15:08:44;;;;;;;2.33;0.50;;;;;;;;;;5282259;28;20375;-79
2023/10/03 15:11:15;;;;;;;3.67;0.75;;;;;;;;;;5283706;28;20350;-78
2023/10/03 15:13:46;;;;;;;2.55;0.70;;;;;;;;;;5283091;28;20025;-78
2023/10/03 15:16:18;;;;;;;2.22;0.60;;;;;;;;;;5282557;28;20027;-77